Time;durP1;ratioP1;P1;durP2;ratioP2;P2;SDS_P1;SDS_P2;PMS_P1;PMS_P2;Temp;Humidity;BMP_temperature;BMP_pressure;BME280_temperature;BME280_humidity;BME280_pressure;Samples;Min_cycle;Max_cycle;Signal;HPM_P1;HPM_P2
2023/03/17 00:02:41;;;;;;;;;;;;;;;;;;5006774;28;19968;-82
2023/03/17 00:05:28;;;;;;;;;;;;;;;;;;5003096;28;19929;-81
2023/03/17 00:08:14;;;;;;;;;;;;;;;;;;5005425;28;19922;-83
2023/03/17 00:11:01;;;;;;;;;;;;;;;;;;5003750;28;19935;-82
2023/03/17 00:13:47;;;;;;;;;;;;;;;;;;5003881;28;19917;-82
2023/03/17 00:16:34;;;;;;;;;;;;;;;;;;5004240;28;19921;-83
2023/03/17 00:19:20;;;;;;;;;;;;;;;;;;5008301;28;19933;-83
2023/03/17 00:22:07;;;;;;;;;;;;;;;;;;5007774;28;19926;-83
2023/03/17 00:24:54;;;;;;;;;;;;;;;;;;5019650;28;20368;-83
2023/03/17 00:27:40;;;;;;;;;;;;;;;;;;5003074;28;19922;-83
2023/03/17 00:30:27;;;;;;;;;;;;;;;;;;5016483;28;19928;-82
2023/03/17 00:33:14;;;;;;;;;;;;;;;;;;5007411;28;20011;-83
2023/03/17 00:36:01;;;;;;;;;;;;;;;;;;5006137;28;19932;-83
2023/03/17 00:38:48;;;;;;;;;;;;;;;;;;5002382;28;19930;-83
2023/03/17 00:41:35;;;;;;;;;;;;;;;;;;4996915;28;19941;-83
2023/03/17 00:44:21;;;;;;;;;;;;;;;;;;5001517;28;19924;-83
2023/03/17 00:47:07;;;;;;;;;;;;;;;;;;4988845;28;20367;-83
2023/03/17 00:49:54;;;;;;;;;;;;;;;;;;5006872;28;19917;-83
2023/03/17 00:52:41;;;;;;;;;;;;;;;;;;5006544;28;20303;-83
2023/03/17 00:55:27;;;;;;;;;;;;;;;;;;5008367;28;20269;-84
2023/03/17 00:58:14;;;;;;;;;;;;;;;;;;5005699;28;19932;-83
2023/03/17 01:01:01;;;;;;;;;;;;;;;;;;5004058;28;19933;-83
2023/03/17 01:03:47;;;;;;;;;;;;;;;;;;5010462;28;19929;-82
2023/03/17 01:06:33;;;;;;;;;;;;;;;;;;5007549;28;19932;-81
2023/03/17 01:09:20;;;;;;;;;;;;;;;;;;4999692;28;20267;-83
2023/03/17 01:12:06;;;;;;;;;;;;;;;;;;4998652;28;19948;-83
2023/03/17 01:14:53;;;;;;;;;;;;;;;;;;4995132;28;20416;-83
2023/03/17 01:17:40;;;;;;;;;;;;;;;;;;5002269;28;19925;-83
2023/03/17 01:20:26;;;;;;;;;;;;;;;;;;5005946;28;20009;-83
2023/03/17 01:23:13;;;;;;;;;;;;;;;;;;5005218;28;19932;-83
2023/03/17 01:25:59;;;;;;;;;;;;;;;;;;4994308;28;19913;-84
2023/03/17 01:28:46;;;;;;;;;;;;;;;;;;5003640;28;20748;-83
2023/03/17 01:31:32;;;;;;;;;;;;;;;;;;5006191;28;19918;-82
2023/03/17 01:34:19;;;;;;;;;;;;;;;;;;4994269;28;19914;-82
2023/03/17 01:37:05;;;;;;;;;;;;;;;;;;5001419;28;19929;-83
2023/03/17 01:39:52;;;;;;;;;;;;;;;;;;5004296;28;19929;-82
2023/03/17 01:42:39;;;;;;;;;;;;;;;;;;4999068;28;19928;-83
2023/03/17 01:45:26;;;;;;;;;;;;;;;;;;5004552;28;19920;-82
2023/03/17 01:48:14;;;;;;;;;;;;;;;;;;4994744;28;19925;-82
2023/03/17 01:51:00;;;;;;;;;;;;;;;;;;5004116;28;19922;-84
2023/03/17 01:53:47;;;;;;;;;;;;;;;;;;5005168;28;19913;-84
2023/03/17 01:56:33;;;;;;;;;;;;;;;;;;5005230;28;19917;-83
2023/03/17 01:59:21;;;;;;;;;;;;;;;;;;5005766;28;20436;-82
2023/03/17 02:02:07;;;;;;;;;;;;;;;;;;4995675;28;20702;-82
2023/03/17 02:04:54;;;;;;;;;;;;;;;;;;4991152;28;19929;-84
2023/03/17 02:07:40;;;;;;;;;;;;;;;;;;5004395;28;19929;-81
2023/03/17 02:10:27;;;;;;;;;;;;;;;;;;5005800;28;19924;-83
2023/03/17 02:13:13;;;;;;;;;;;;;;;;;;5001694;28;19927;-83
2023/03/17 02:16:00;;;;;;;;;;;;;;;;;;5003936;28;19918;-83
2023/03/17 02:18:46;;;;;;;;;;;;;;;;;;4995791;28;19928;-83
2023/03/17 02:21:33;;;;;;;;;;;;;;;;;;5002744;28;19925;-82
2023/03/17 02:24:20;;;;;;;;;;;;;;;;;;5005149;28;19917;-82
2023/03/17 02:27:07;;;;;;;;;;;;;;;;;;5004653;28;20435;-83
2023/03/17 02:29:53;;;;;;;;;;;;;;;;;;5004251;28;19914;-83
2023/03/17 02:32:40;;;;;;;;;;;;;;;;;;4994763;28;19941;-84
2023/03/17 02:35:26;;;;;;;;;;;;;;;;;;4997581;28;19917;-84
2023/03/17 02:38:13;;;;;;;;;;;;;;;;;;5005441;28;19930;-83
2023/03/17 02:40:59;;;;;;;;;;;;;;;;;;5000326;28;19925;-84
2023/03/17 02:43:46;;;;;;;;;;;;;;;;;;5005361;28;19928;-83
2023/03/17 02:46:32;;;;;;;;;;;;;;;;;;5003681;28;20744;-82
2023/03/17 02:49:19;;;;;;;;;;;;;;;;;;5003471;28;19921;-83
2023/03/17 02:52:06;;;;;;;;;;;;;;;;;;5003801;28;20054;-83
2023/03/17 02:54:52;;;;;;;;;;;;;;;;;;5003697;28;19928;-83
2023/03/17 02:57:39;;;;;;;;;;;;;;;;;;5000019;28;20465;-83
2023/03/17 03:00:25;;;;;;;;;;;;;;;;;;5004855;28;19925;-82
2023/03/17 03:03:12;;;;;;;;;;;;;;;;;;4989649;28;19926;-83
2023/03/17 03:05:58;;;;;;;;;;;;;;;;;;5001583;28;19924;-84
2023/03/17 03:08:45;;;;;;;;;;;;;;;;;;5007674;28;19933;-83
2023/03/17 03:11:31;;;;;;;;;;;;;;;;;;5004290;28;19918;-83
2023/03/17 03:14:18;;;;;;;;;;;;;;;;;;4993093;28;19925;-83
2023/03/17 03:17:04;;;;;;;;;;;;;;;;;;4998397;28;19924;-83
2023/03/17 03:19:51;;;;;;;;;;;;;;;;;;5007770;28;19926;-82
2023/03/17 03:22:37;;;;;;;;;;;;;;;;;;5008126;28;19928;-85
2023/03/17 03:25:24;;;;;;;;;;;;;;;;;;5008300;28;19918;-83
2023/03/17 03:28:10;;;;;;;;;;;;;;;;;;5007735;28;19924;-83
2023/03/17 03:30:57;;;;;;;;;;;;;;;;;;5006706;28;19951;-83
2023/03/17 03:33:43;;;;;;;;;;;;;;;;;;5007663;28;19922;-83
2023/03/17 03:36:31;;;;;;;;;;;;;;;;;;5008688;28;19941;-82
2023/03/17 03:39:17;;;;;;;;;;;;;;;;;;5006933;28;19941;-83
2023/03/17 03:42:04;;;;;;;;;;;;;;;;;;4991634;28;19921;-82
2023/03/17 03:44:51;;;;;;;;;;;;;;;;;;4994423;28;19929;-82
2023/03/17 03:47:37;;;;;;;;;;;;;;;;;;5001299;28;19917;-82
2023/03/17 03:50:24;;;;;;;;;;;;;;;;;;5007790;28;19917;-82
2023/03/17 03:53:10;;;;;;;;;;;;;;;;;;5000639;28;20031;-82
2023/03/17 03:55:57;;;;;;;;;;;;;;;;;;5006337;28;19921;-83
2023/03/17 03:58:43;;;;;;;;;;;;;;;;;;4999225;28;19925;-84
2023/03/17 04:01:30;;;;;;;;;;;;;;;;;;5007685;28;19924;-82
2023/03/17 04:04:16;;;;;;;;;;;;;;;;;;4966855;28;20094;-82
2023/03/17 04:07:03;;;;;;;;;;;;;;;;;;4968521;28;19922;-83
2023/03/17 04:09:50;;;;;;;;;;;;;;;;;;4977713;28;19929;-83
2023/03/17 04:12:36;;;;;;;;;;;;;;;;;;4962915;28;19918;-81
2023/03/17 04:15:23;;;;;;;;;;;;;;;;;;4971096;28;19929;-82
2023/03/17 04:18:10;;;;;;;;;;;;;;;;;;4967346;28;19933;-83
2023/03/17 04:20:56;;;;;;;;;;;;;;;;;;4968341;28;19928;-83
2023/03/17 04:23:43;;;;;;;;;;;;;;;;;;4965288;28;19926;-82
2023/03/17 04:26:30;;;;;;;;;;;;;;;;;;4966827;28;19914;-82
2023/03/17 04:29:17;;;;;;;;;;;;;;;;;;4962688;28;19925;-83
2023/03/17 04:32:04;;;;;;;;;;;;;;;;;;4965617;28;20367;-81
2023/03/17 04:34:51;;;;;;;;;;;;;;;;;;4965768;28;19930;-82
2023/03/17 04:37:37;;;;;;;;;;;;;;;;;;4965840;28;19928;-83
2023/03/17 04:40:24;;;;;;;;;;;;;;;;;;4966629;28;19926;-83
2023/03/17 04:43:11;;;;;;;;;;;;;;;;;;4965428;28;19923;-83
2023/03/17 04:45:57;;;;;;;;;;;;;;;;;;4966927;28;19915;-83
2023/03/17 04:48:43;;;;;;;;;;;;;;;;;;4962834;28;19926;-84
2023/03/17 04:51:30;;;;;;;;;;;;;;;;;;4979302;28;19918;-85
2023/03/17 04:54:17;;;;;;;;;;;;;;;;;;4977720;28;19926;-82
2023/03/17 04:57:03;;;;;;;;;;;;;;;;;;4965811;28;19922;-85
2023/03/17 04:59:50;;;;;;;;;;;;;;;;;;4965215;28;19930;-82
2023/03/17 05:02:37;;;;;;;;;;;;;;;;;;4979950;28;19952;-84
2023/03/17 05:05:24;;;;;;;;;;;;;;;;;;5005231;28;20506;-85
2023/03/17 05:08:10;;;;;;;;;;;;;;;;;;5005169;28;20288;-85
2023/03/17 05:10:57;;;;;;;;;;;;;;;;;;5006050;28;19924;-84
2023/03/17 05:13:43;;;;;;;;;;;;;;;;;;5004067;28;19928;-81
2023/03/17 05:16:30;;;;;;;;;;;;;;;;;;5002787;28;19917;-82
2023/03/17 05:19:17;;;;;;;;;;;;;;;;;;5001692;28;19936;-82
2023/03/17 05:22:03;;;;;;;;;;;;;;;;;;5004210;28;19919;-82
2023/03/17 05:24:50;;;;;;;;;;;;;;;;;;5004061;28;19924;-80
2023/03/17 05:27:36;;;;;;;;;;;;;;;;;;4998947;28;20489;-83
2023/03/17 05:30:24;;;;;;;;;;;;;;;;;;5003178;28;19928;-81
2023/03/17 05:33:10;;;;;;;;;;;;;;;;;;5000998;28;19928;-81
2023/03/17 05:35:57;;;;;;;;;;;;;;;;;;5000052;28;19922;-82
2023/03/17 05:38:43;;;;;;;;;;;;;;;;;;5004550;28;19944;-82
2023/03/17 05:41:30;;;;;;;;;;;;;;;;;;5004545;28;19921;-81
2023/03/17 05:44:16;;;;;;;;;;;;;;;;;;5003561;28;20021;-81
2023/03/17 05:47:03;;;;;;;;;;;;;;;;;;5000581;28;19923;-83
2023/03/17 05:49:49;;;;;;;;;;;;;;;;;;5001950;28;20396;-81
2023/03/17 05:52:36;;;;;;;;;;;;;;;;;;5004102;28;19917;-81
2023/03/17 05:55:23;;;;;;;;;;;;;;;;;;5002078;28;20292;-80
2023/03/17 05:58:09;;;;;;;;;;;;;;;;;;4991227;28;19924;-81
2023/03/17 06:00:56;;;;;;;;;;;;;;;;;;4998214;28;19932;-81
2023/03/17 06:03:42;;;;;;;;;;;;;;;;;;5001268;28;19925;-83
2023/03/17 06:06:29;;;;;;;;;;;;;;;;;;5003866;28;19918;-82
2023/03/17 06:09:15;;;;;;;;;;;;;;;;;;5004147;28;19928;-82
2023/03/17 06:12:02;;;;;;;;;;;;;;;;;;5003415;28;19922;-82
2023/03/17 06:14:48;;;;;;;;;;;;;;;;;;5002974;28;19929;-81
2023/03/17 06:17:35;;;;;;;;;;;;;;;;;;5004024;28;19932;-80
2023/03/17 06:20:21;;;;;;;;;;;;;;;;;;4995921;28;19929;-81
2023/03/17 06:23:08;;;;;;;;;;;;;;;;;;5000847;28;19969;-82
2023/03/17 06:25:54;;;;;;;;;;;;;;;;;;5001053;28;19918;-82
2023/03/17 06:28:41;;;;;;;;;;;;;;;;;;5003727;28;19917;-80
2023/03/17 06:31:27;;;;;;;;;;;;;;;;;;5004059;28;19979;-80
2023/03/17 06:34:14;;;;;;;;;;;;;;;;;;4997190;28;20293;-80
2023/03/17 06:37:00;;;;;;;;;;;;;;;;;;5002655;28;19921;-83
2023/03/17 06:39:47;;;;;;;;;;;;;;;;;;5001153;28;19929;-80
2023/03/17 06:42:33;;;;;;;;;;;;;;;;;;5001384;28;19925;-82
2023/03/17 06:45:20;;;;;;;;;;;;;;;;;;5001955;28;19926;-81
2023/03/17 06:48:06;;;;;;;;;;;;;;;;;;5001078;28;19933;-81
2023/03/17 06:50:53;;;;;;;;;;;;;;;;;;5002365;28;19922;-81
2023/03/17 06:53:39;;;;;;;;;;;;;;;;;;5003589;28;20440;-80
2023/03/17 06:56:26;;;;;;;;;;;;;;;;;;5004779;28;20494;-81
2023/03/17 06:59:12;;;;;;;;;;;;;;;;;;4995897;28;20009;-80
2023/03/17 07:01:59;;;;;;;;;;;;;;;;;;5002412;28;19917;-80
2023/03/17 07:04:45;;;;;;;;;;;;;;;;;;5016608;28;20307;-81
2023/03/17 07:07:34;;;;;;;;;;;;;;;;;;5004647;28;19921;-80
2023/03/17 07:10:21;;;;;;;;;;;;;;;;;;5003965;28;19928;-80
2023/03/17 07:13:09;;;;;;;;;;;;;;;;;;4994909;28;20296;-80
2023/03/17 07:15:56;;;;;;;;;;;;;;;;;;4997377;28;19917;-80
2023/03/17 07:18:43;;;;;;;;;;;;;;;;;;5005480;28;19964;-80
2023/03/17 07:21:30;;;;;;;;;;;;;;;;;;5003742;28;19921;-81
2023/03/17 07:24:17;;;;;;;;;;;;;;;;;;5004123;28;19922;-80
2023/03/17 07:27:03;;;;;;;;;;;;;;;;;;5004201;28;19922;-81
2023/03/17 07:29:50;;;;;;;;;;;;;;;;;;5003903;28;19951;-79
2023/03/17 07:32:37;;;;;;;;;;;;;;;;;;5004180;28;19924;-82
2023/03/17 07:35:23;;;;;;;;;;;;;;;;;;5005616;28;19921;-79
2023/03/17 07:38:10;;;;;;;;;;;;;;;;;;5002406;28;19952;-80
2023/03/17 07:40:57;;;;;;;;;;;;;;;;;;4999964;28;19925;-80
2023/03/17 07:43:43;;;;;;;;;;;;;;;;;;4995906;28;19922;-79
2023/03/17 07:46:30;;;;;;;;;;;;;;;;;;5004881;28;20429;-80
2023/03/17 07:49:17;;;;;;;;;;;;;;;;;;4992462;28;19921;-80
2023/03/17 07:52:03;;;;;;;;;;;;;;;;;;5002107;28;20392;-80
2023/03/17 07:54:50;;;;;;;;;;;;;;;;;;5000664;28;20391;-80
2023/03/17 07:57:37;;;;;;;;;;;;;;;;;;5000927;28;19924;-80
2023/03/17 08:00:23;;;;;;;;;;;;;;;;;;5005809;28;20405;-80
2023/03/17 08:03:10;;;;;;;;;;;;;;;;;;5006186;28;19936;-80
2023/03/17 08:05:58;;;;;;;;;;;;;;;;;;5006900;28;19921;-80
2023/03/17 08:08:45;;;;;;;;;;;;;;;;;;5005101;28;19925;-80
2023/03/17 08:11:32;;;;;;;;;;;;;;;;;;5003398;28;19924;-80
2023/03/17 08:14:18;;;;;;;;;;;;;;;;;;5001831;28;19921;-80
2023/03/17 08:17:05;;;;;;;;;;;;;;;;;;5004479;28;19917;-81
2023/03/17 08:19:51;;;;;;;;;;;;;;;;;;5003455;28;19929;-79
2023/03/17 08:22:38;;;;;;;;;;;;;;;;;;5002047;28;19921;-79
2023/03/17 08:25:24;;;;;;;;;;;;;;;;;;5006132;28;19941;-80
2023/03/17 08:28:11;;;;;;;;;;;;;;;;;;5001991;28;19922;-79
2023/03/17 08:30:57;;;;;;;;;;;;;;;;;;5000163;28;19913;-80
2023/03/17 08:33:43;;;;;;;;;;;;;;;;;;5004238;28;20378;-80
2023/03/17 08:36:30;;;;;;;;;;;;;;;;;;5003775;28;19933;-80
2023/03/17 08:39:16;;;;;;;;;;;;;;;;;;5002957;28;20380;-80
2023/03/17 08:42:03;;;;;;;;;;;;;;;;;;5000333;28;19917;-79
2023/03/17 08:44:49;;;;;;;;;;;;;;;;;;5005254;28;19929;-80
2023/03/17 08:47:37;;;;;;;;;;;;;;;;;;5004988;28;20576;-79
2023/03/17 08:50:23;;;;;;;;;;;;;;;;;;5004408;28;19926;-80
2023/03/17 08:53:10;;;;;;;;;;;;;;;;;;5007466;28;19929;-80
2023/03/17 08:55:57;;;;;;;;;;;;;;;;;;5004904;28;19921;-81
2023/03/17 08:58:43;;;;;;;;;;;;;;;;;;5002696;28;19922;-80
2023/03/17 09:01:30;;;;;;;;;;;;;;;;;;5003842;28;19964;-79
2023/03/17 09:04:16;;;;;;;;;;;;;;;;;;4965783;28;19930;-80
2023/03/17 09:07:04;;;;;;;;;;;;;;;;;;4966955;28;19925;-80
2023/03/17 09:09:51;;;;;;;;;;;;;;;;;;4965207;28;19922;-80
2023/03/17 09:12:38;;;;;;;;;;;;;;;;;;4954619;28;19949;-80
2023/03/17 09:15:24;;;;;;;;;;;;;;;;;;4979011;28;20270;-80
2023/03/17 09:18:11;;;;;;;;;;;;;;;;;;4964690;28;19925;-80
2023/03/17 09:20:57;;;;;;;;;;;;;;;;;;4961656;28;19926;-80
2023/03/17 09:23:44;;;;;;;;;;;;;;;;;;4963834;28;19934;-80
2023/03/17 09:26:30;;;;;;;;;;;;;;;;;;4963156;28;19922;-81
2023/03/17 09:29:17;;;;;;;;;;;;;;;;;;4964008;28;19930;-80
2023/03/17 09:32:03;;;;;;;;;;;;;;;;;;4961868;28;19922;-80
2023/03/17 09:34:50;;;;;;;;;;;;;;;;;;4963866;28;20750;-79
2023/03/17 09:37:36;;;;;;;;;;;;;;;;;;4971993;28;19922;-80
2023/03/17 09:40:23;;;;;;;;;;;;;;;;;;4959055;28;20633;-80
2023/03/17 09:43:10;;;;;;;;;;;;;;;;;;4978659;28;19941;-80
2023/03/17 09:45:56;;;;;;;;;;;;;;;;;;4964634;28;19922;-80
2023/03/17 09:48:43;;;;;;;;;;;;;;;;;;4963405;28;19924;-80
2023/03/17 09:51:29;;;;;;;;;;;;;;;;;;4952051;28;19929;-80
2023/03/17 09:54:17;;;;;;;;;;;;;;;;;;4975769;28;19922;-80
2023/03/17 09:57:04;;;;;;;;;;;;;;;;;;4974797;28;19922;-80
2023/03/17 09:59:52;;;;;;;;;;;;;;;;;;4962936;28;20310;-81
2023/03/17 10:02:39;;;;;;;;;;;;;;;;;;4973270;28;19927;-80
2023/03/17 10:05:25;;;;;;;;;;;;;;;;;;5001601;28;19933;-81
2023/03/17 10:08:12;;;;;;;;;;;;;;;;;;5002117;28;19918;-80
2023/03/17 10:10:58;;;;;;;;;;;;;;;;;;5001154;28;19925;-80
2023/03/17 10:13:45;;;;;;;;;;;;;;;;;;4999068;28;19928;-81
2023/03/17 10:16:32;;;;;;;;;;;;;;;;;;5003145;28;19929;-80
2023/03/17 10:19:18;;;;;;;;;;;;;;;;;;5001810;28;19933;-80
2023/03/17 10:22:05;;;;;;;;;;;;;;;;;;5004372;28;19923;-80
2023/03/17 10:24:51;;;;;;;;;;;;;;;;;;4997290;28;19926;-80
2023/03/17 10:27:38;;;;;;;;;;;;;;;;;;5000586;28;19922;-80
2023/03/17 10:30:24;;;;;;;;;;;;;;;;;;5004429;28;19921;-80
2023/03/17 10:33:11;;;;;;;;;;;;;;;;;;5002329;28;19921;-80
2023/03/17 10:35:58;;;;;;;;;;;;;;;;;;5002773;28;20326;-81
2023/03/17 10:38:44;;;;;;;;;;;;;;;;;;5000521;28;19932;-80
2023/03/17 10:41:31;;;;;;;;;;;;;;;;;;5002524;28;19952;-80
2023/03/17 10:44:17;;;;;;;;;;;;;;;;;;5001280;28;19921;-79
2023/03/17 10:47:04;;;;;;;;;;;;;;;;;;5001627;28;19929;-79
2023/03/17 10:49:51;;;;;;;;;;;;;;;;;;5000997;28;19948;-83
2023/03/17 10:52:38;;;;;;;;;;;;;;;;;;5002433;28;19918;-80
2023/03/17 10:55:25;;;;;;;;;;;;;;;;;;5001517;28;19933;-80
2023/03/17 10:58:12;;;;;;;;;;;;;;;;;;5002844;28;20407;-81
2023/03/17 11:00:59;;;;;;;;;;;;;;;;;;5003817;28;19929;-80
2023/03/17 11:03:45;;;;;;;;;;;;;;;;;;5000981;28;19929;-80
2023/03/17 11:06:32;;;;;;;;;;;;;;;;;;5000506;28;19929;-81
2023/03/17 11:09:20;;;;;;;;;;;;;;;;;;5003069;28;19922;-81
2023/03/17 11:12:07;;;;;;;;;;;;;;;;;;5000995;28;20383;-81
2023/03/17 11:14:54;;;;;;;;;;;;;;;;;;5002549;28;19928;-81
2023/03/17 11:17:41;;;;;;;;;;;;;;;;;;5000291;28;20225;-80
2023/03/17 11:20:28;;;;;;;;;;;;;;;;;;5001122;28;20300;-81
2023/03/17 11:23:14;;;;;;;;;;;;;;;;;;5003359;28;19922;-80
2023/03/17 11:26:01;;;;;;;;;;;;;;;;;;5002257;28;19941;-80
2023/03/17 11:28:48;;;;;;;;;;;;;;;;;;5004087;28;19922;-81
2023/03/17 11:31:35;;;;;;;;;;;;;;;;;;5001149;28;19925;-81
2023/03/17 11:34:22;;;;;;;;;;;;;;;;;;5004043;28;20510;-80
2023/03/17 11:37:09;;;;;;;;;;;;;;;;;;5005613;28;19922;-79
2023/03/17 11:39:55;;;;;;;;;;;;;;;;;;5005584;28;19929;-79
2023/03/17 11:42:41;;;;;;;;;;;;;;;;;;5006174;28;20544;-81
2023/03/17 11:45:28;;;;;;;;;;;;;;;;;;4995929;28;19929;-79
2023/03/17 11:48:15;;;;;;;;;;;;;;;;;;5004452;28;19921;-80
2023/03/17 11:51:01;;;;;;;;;;;;;;;;;;5002936;28;19921;-80
2023/03/17 11:53:48;;;;;;;;;;;;;;;;;;5005417;28;19918;-81
2023/03/17 11:56:34;;;;;;;;;;;;;;;;;;5006880;28;20447;-80
2023/03/17 11:59:21;;;;;;;;;;;;;;;;;;4998547;28;19928;-80
2023/03/17 12:02:07;;;;;;;;;;;;;;;;;;5001088;28;20308;-81
2023/03/17 12:04:54;;;;;;;;;;;;;;;;;;5006705;28;19924;-80
2023/03/17 12:07:41;;;;;;;;;;;;;;;;;;5003212;28;19987;-80
2023/03/17 12:10:27;;;;;;;;;;;;;;;;;;5004643;28;19926;-80
2023/03/17 12:13:14;;;;;;;;;;;;;;;;;;5003437;28;19917;-81
2023/03/17 12:16:02;;;;;;;;;;;;;;;;;;5000460;28;19936;-82
2023/03/17 12:18:49;;;;;;;;;;;;;;;;;;4997330;28;19940;-80
2023/03/17 12:21:35;;;;;;;;;;;;;;;;;;5005379;28;19932;-80
2023/03/17 12:24:22;;;;;;;;;;;;;;;;;;5006748;28;19929;-80
2023/03/17 12:27:09;;;;;;;;;;;;;;;;;;5004512;28;20016;-81
2023/03/17 12:29:55;;;;;;;;;;;;;;;;;;5004433;28;20444;-81
2023/03/17 12:32:42;;;;;;;;;;;;;;;;;;5003350;28;19932;-81
2023/03/17 12:35:29;;;;;;;;;;;;;;;;;;5007339;28;19925;-81
2023/03/17 12:38:15;;;;;;;;;;;;;;;;;;5004414;28;19925;-81
2023/03/17 12:41:02;;;;;;;;;;;;;;;;;;5001999;28;19952;-81
2023/03/17 12:43:48;;;;;;;;;;;;;;;;;;5002904;28;19921;-79
2023/03/17 12:46:35;;;;;;;;;;;;;;;;;;4999711;28;19932;-78
2023/03/17 12:49:22;;;;;;;;;;;;;;;;;;5001641;28;19917;-79
2023/03/17 12:52:09;;;;;;;;;;;;;;;;;;5003514;28;19929;-79
2023/03/17 12:54:55;;;;;;;;;;;;;;;;;;5004903;28;19933;-79
2023/03/17 12:57:42;;;;;;;;;;;;;;;;;;5003101;28;20320;-79
2023/03/17 13:00:29;;;;;;;;;;;;;;;;;;5003215;28;20381;-80
2023/03/17 13:03:15;;;;;;;;;;;;;;;;;;5003358;28;19940;-82
2023/03/17 13:06:02;;;;;;;;;;;;;;;;;;5004527;28;19922;-80
2023/03/17 13:08:49;;;;;;;;;;;;;;;;;;5001199;28;19927;-79
2023/03/17 13:11:35;;;;;;;;;;;;;;;;;;5001353;28;19922;-78
2023/03/17 13:14:22;;;;;;;;;;;;;;;;;;5003331;28;19937;-84
2023/03/17 13:17:08;;;;;;;;;;;;;;;;;;5004111;28;20021;-83
2023/03/17 13:19:55;;;;;;;;;;;;;;;;;;5001269;28;20322;-84
2023/03/17 13:22:42;;;;;;;;;;;;;;;;;;4997442;28;19925;-84
2023/03/17 13:25:28;;;;;;;;;;;;;;;;;;5003017;28;19921;-83
2023/03/17 13:28:14;;;;;;;;;;;;;;;;;;5004771;28;20964;-83
2023/03/17 13:31:01;;;;;;;;;;;;;;;;;;5001094;28;19921;-80
2023/03/17 13:33:47;;;;;;;;;;;;;;;;;;4998591;28;19971;-78
2023/03/17 13:36:35;;;;;;;;;;;;;;;;;;4998476;28;19928;-77
2023/03/17 13:39:21;;;;;;;;;;;;;;;;;;5003478;28;19929;-81
2023/03/17 13:42:08;;;;;;;;;;;;;;;;;;4999875;28;19921;-79
2023/03/17 13:44:54;;;;;;;;;;;;;;;;;;5000815;28;19948;-79
2023/03/17 13:47:41;;;;;;;;;;;;;;;;;;4997264;28;19929;-81
2023/03/17 13:50:27;;;;;;;;;;;;;;;;;;5001383;28;19939;-80
2023/03/17 13:53:14;;;;;;;;;;;;;;;;;;4993089;28;20391;-79
2023/03/17 13:56:01;;;;;;;;;;;;;;;;;;4994493;28;20270;-80
2023/03/17 13:58:47;;;;;;;;;;;;;;;;;;5000463;28;19929;-79
2023/03/17 14:01:34;;;;;;;;;;;;;;;;;;5001547;28;19925;-78
2023/03/17 14:04:20;;;;;;;;;;;;;;;;;;5003905;28;19929;-79
2023/03/17 14:07:07;;;;;;;;;;;;;;;;;;5004161;28;19928;-80
2023/03/17 14:09:54;;;;;;;;;;;;;;;;;;5001836;28;19925;-78
2023/03/17 14:12:40;;;;;;;;;;;;;;;;;;5002196;28;20358;-79
2023/03/17 14:15:27;;;;;;;;;;;;;;;;;;5001862;28;19948;-79
2023/03/17 14:18:13;;;;;;;;;;;;;;;;;;5001382;28;19921;-79
2023/03/17 14:21:00;;;;;;;;;;;;;;;;;;4999074;28;19929;-79
2023/03/17 14:23:47;;;;;;;;;;;;;;;;;;5000839;28;20308;-82
2023/03/17 14:26:33;;;;;;;;;;;;;;;;;;5000383;28;19918;-80
2023/03/17 14:29:20;;;;;;;;;;;;;;;;;;5000456;28;19924;-79
2023/03/17 14:32:06;;;;;;;;;;;;;;;;;;4998644;28;19918;-79
2023/03/17 14:34:53;;;;;;;;;;;;;;;;;;5000195;28;19921;-80
2023/03/17 14:37:39;;;;;;;;;;;;;;;;;;5004120;28;19921;-79
2023/03/17 14:40:26;;;;;;;;;;;;;;;;;;5003748;28;19929;-79
2023/03/17 14:43:12;;;;;;;;;;;;;;;;;;5000424;28;19921;-80
2023/03/17 14:45:59;;;;;;;;;;;;;;;;;;5000304;28;19929;-79
2023/03/17 14:48:45;;;;;;;;;;;;;;;;;;4992145;28;20820;-79
2023/03/17 14:51:32;;;;;;;;;;;;;;;;;;5002052;28;19928;-80
2023/03/17 14:54:18;;;;;;;;;;;;;;;;;;5003160;28;19939;-80
2023/03/17 14:57:05;;;;;;;;;;;;;;;;;;5002332;28;19940;-80
2023/03/17 14:59:51;;;;;;;;;;;;;;;;;;4997244;28;20016;-79
2023/03/17 15:02:40;;;;;;;;;;;;;;;;;;4996585;28;19929;-80
2023/03/17 15:05:26;;;;;;;;;;;;;;;;;;5002964;28;19960;-81
2023/03/17 15:08:13;;;;;;;;;;;;;;;;;;5000785;28;19922;-80
2023/03/17 15:10:59;;;;;;;;;;;;;;;;;;5000249;28;19929;-81
2023/03/17 15:13:46;;;;;;;;;;;;;;;;;;5002536;28;19928;-78
2023/03/17 15:16:32;;;;;;;;;;;;;;;;;;5003111;28;19918;-79
2023/03/17 15:19:19;;;;;;;;;;;;;;;;;;5003790;28;19944;-79
2023/03/17 15:22:05;;;;;;;;;;;;;;;;;;5001378;28;19928;-79
2023/03/17 15:24:52;;;;;;;;;;;;;;;;;;5003090;28;19924;-79
2023/03/17 15:27:38;;;;;;;;;;;;;;;;;;4995176;28;19914;-79
2023/03/17 15:30:25;;;;;;;;;;;;;;;;;;5004126;28;19922;-80
2023/03/17 15:33:11;;;;;;;;;;;;;;;;;;5000735;28;19921;-80
2023/03/17 15:35:59;;;;;;;;;;;;;;;;;;4987894;28;20573;-80
2023/03/17 15:38:45;;;;;;;;;;;;;;;;;;4998926;28;20354;-81
2023/03/17 15:41:32;;;;;;;;;;;;;;;;;;4997120;28;19933;-82
2023/03/17 15:44:18;;;;;;;;;;;;;;;;;;4999198;28;19917;-82
2023/03/17 15:47:04;;;;;;;;;;;;;;;;;;5003321;28;19921;-80
2023/03/17 15:49:51;;;;;;;;;;;;;;;;;;5002512;28;19932;-79
2023/03/17 15:52:37;;;;;;;;;;;;;;;;;;5008618;28;19919;-81
2023/03/17 15:55:24;;;;;;;;;;;;;;;;;;5003057;28;20448;-80
2023/03/17 15:58:10;;;;;;;;;;;;;;;;;;5000894;28;20369;-80
2023/03/17 16:00:58;;;;;;;;;;;;;;;;;;4998146;28;19926;-78
2023/03/17 16:03:45;;;;;;;;;;;;;;;;;;5013858;28;19937;-78
2023/03/17 16:06:32;;;;;;;;;;;;;;;;;;5003025;28;19922;-79
2023/03/17 16:09:18;;;;;;;;;;;;;;;;;;5002830;28;19925;-79
2023/03/17 16:12:05;;;;;;;;;;;;;;;;;;5003140;28;19926;-79
2023/03/17 16:14:52;;;;;;;;;;;;;;;;;;5003932;28;19922;-79
2023/03/17 16:17:38;;;;;;;;;;;;;;;;;;5011967;28;19929;-78
2023/03/17 16:20:25;;;;;;;;;;;;;;;;;;5007688;28;19956;-79
2023/03/17 16:23:12;;;;;;;;;;;;;;;;;;5004855;28;19929;-78
2023/03/17 16:25:58;;;;;;;;;;;;;;;;;;5005325;28;20039;-79
2023/03/17 16:28:46;;;;;;;;;;;;;;;;;;5007786;28;19925;-80
2023/03/17 16:31:32;;;;;;;;;;;;;;;;;;5004889;28;19926;-82
2023/03/17 16:34:19;;;;;;;;;;;;;;;;;;5003905;28;20309;-79
2023/03/17 16:37:06;;;;;;;;;;;;;;;;;;5004378;28;19937;-80
2023/03/17 16:39:52;;;;;;;;;;;;;;;;;;5005524;28;20312;-79
2023/03/17 16:42:41;;;;;;;;;;;;;;;;;;5006546;28;19928;-79
2023/03/17 16:45:28;;;;;;;;;;;;;;;;;;5007713;28;20240;-78
2023/03/17 16:48:14;;;;;;;;;;;;;;;;;;5004468;28;19928;-80
2023/03/17 16:51:01;;;;;;;;;;;;;;;;;;5003597;28;20585;-80
2023/03/17 16:53:47;;;;;;;;;;;;;;;;;;5003522;28;19925;-80
2023/03/17 16:56:34;;;;;;;;;;;;;;;;;;5005864;28;20511;-81
2023/03/17 16:59:20;;;;;;;;;;;;;;;;;;4998744;28;19927;-81
2023/03/17 17:02:07;;;;;;;;;;;;;;;;;;5004856;28;19921;-81
2023/03/17 17:04:53;;;;;;;;;;;;;;;;;;5003390;28;19938;-80
2023/03/17 17:07:40;;;;;;;;;;;;;;;;;;5004153;28;19925;-81
2023/03/17 17:10:26;;;;;;;;;;;;;;;;;;5004052;28;20377;-79
2023/03/17 17:13:12;;;;;;;;;;;;;;;;;;5003792;28;19928;-80
2023/03/17 17:15:59;;;;;;;;;;;;;;;;;;4999635;28;19922;-82
2023/03/17 17:18:46;;;;;;;;;;;;;;;;;;5003246;28;19954;-80
2023/03/17 17:21:32;;;;;;;;;;;;;;;;;;5003114;28;19925;-78
2023/03/17 17:24:19;;;;;;;;;;;;;;;;;;5004525;28;20518;-80
2023/03/17 17:27:05;;;;;;;;;;;;;;;;;;4992082;28;19917;-79
2023/03/17 17:29:52;;;;;;;;;;;;;;;;;;5005521;28;19917;-83
2023/03/17 17:32:38;;;;;;;;;;;;;;;;;;5002845;28;19921;-80
2023/03/17 17:35:25;;;;;;;;;;;;;;;;;;5005790;28;19933;-81
2023/03/17 17:38:11;;;;;;;;;;;;;;;;;;5003429;28;19929;-80
2023/03/17 17:40:58;;;;;;;;;;;;;;;;;;5002055;28;19944;-80
2023/03/17 17:43:44;;;;;;;;;;;;;;;;;;5001973;28;19921;-82
2023/03/17 17:46:31;;;;;;;;;;;;;;;;;;5003585;28;20587;-80
2023/03/17 17:49:17;;;;;;;;;;;;;;;;;;5002255;28;19918;-81
2023/03/17 17:52:04;;;;;;;;;;;;;;;;;;5004189;28;19913;-80
2023/03/17 17:54:50;;;;;;;;;;;;;;;;;;5004982;28;19933;-79
2023/03/17 17:57:37;;;;;;;;;;;;;;;;;;4989086;28;19925;-80
2023/03/17 18:00:24;;;;;;;;;;;;;;;;;;5001881;28;19940;-79
2023/03/17 18:03:11;;;;;;;;;;;;;;;;;;5005925;28;19936;-79
2023/03/17 18:05:58;;;;;;;;;;;;;;;;;;5004684;28;19917;-77
2023/03/17 18:08:44;;;;;;;;;;;;;;;;;;4995283;28;19917;-81
2023/03/17 18:11:30;;;;;;;;;;;;;;;;;;5004556;28;19918;-80
2023/03/17 18:14:17;;;;;;;;;;;;;;;;;;5003715;28;19921;-80
2023/03/17 18:17:03;;;;;;;;;;;;;;;;;;5000638;28;19956;-79
2023/03/17 18:19:52;;;;;;;;;;;;;;;;;;5000960;28;19925;-80
2023/03/17 18:22:38;;;;;;;;;;;;;;;;;;5002608;28;19920;-79
2023/03/17 18:25:25;;;;;;;;;;;;;;;;;;5001866;28;19917;-79
2023/03/17 18:28:12;;;;;;;;;;;;;;;;;;5000189;28;19928;-80
2023/03/17 18:30:58;;;;;;;;;;;;;;;;;;5004374;28;19917;-79
2023/03/17 18:33:45;;;;;;;;;;;;;;;;;;4993875;28;19913;-79
2023/03/17 18:36:31;;;;;;;;;;;;;;;;;;5004065;28;19944;-80
2023/03/17 18:39:18;;;;;;;;;;;;;;;;;;4999877;28;19926;-79
2023/03/17 18:42:04;;;;;;;;;;;;;;;;;;5003869;28;19937;-80
2023/03/17 18:44:51;;;;;;;;;;;;;;;;;;5004010;28;19924;-79
2023/03/17 18:47:38;;;;;;;;;;;;;;;;;;5002759;28;19944;-80
2023/03/17 18:50:26;;;;;;;;;;;;;;;;;;5002833;28;19924;-79
2023/03/17 18:53:12;;;;;;;;;;;;;;;;;;5003029;28;19918;-80
2023/03/17 18:55:59;;;;;;;;;;;;;;;;;;5001704;28;19933;-80
2023/03/17 18:58:46;;;;;;;;;;;;;;;;;;5004470;28;19914;-81